sensor_id;sensor_type;location;lat;lon;timestamp;P1;durP1;ratioP1;P2;durP2;ratioP2
58446;SDS011;44240;51.840;7.258;2023-02-02T00:01:11;6.97;;;1.98;;
58446;SDS011;44240;51.840;7.258;2023-02-02T00:03:37;3.55;;;2.03;;
58446;SDS011;44240;51.840;7.258;2023-02-02T00:06:03;5.32;;;1.42;;
58446;SDS011;44240;51.840;7.258;2023-02-02T00:08:29;10.75;;;2.10;;
58446;SDS011;44240;51.840;7.258;2023-02-02T00:10:55;7.70;;;2.10;;
58446;SDS011;44240;51.840;7.258;2023-02-02T00:13:21;9.45;;;2.08;;
58446;SDS011;44240;51.840;7.258;2023-02-02T00:15:47;12.85;;;2.60;;
58446;SDS011;44240;51.840;7.258;2023-02-02T00:18:12;4.90;;;1.67;;
58446;SDS011;44240;51.840;7.258;2023-02-02T00:20:38;14.75;;;2.85;;
58446;SDS011;44240;51.840;7.258;2023-02-02T00:23:03;12.20;;;2.72;;
58446;SDS011;44240;51.840;7.258;2023-02-02T00:25:29;5.95;;;2.30;;
58446;SDS011;44240;51.840;7.258;2023-02-02T00:27:55;6.85;;;2.42;;
58446;SDS011;44240;51.840;7.258;2023-02-02T00:30:21;11.77;;;2.40;;
58446;SDS011;44240;51.840;7.258;2023-02-02T00:32:47;8.23;;;2.60;;
58446;SDS011;44240;51.840;7.258;2023-02-02T00:35:14;7.00;;;1.80;;
58446;SDS011;44240;51.840;7.258;2023-02-02T00:37:40;10.90;;;2.38;;
58446;SDS011;44240;51.840;7.258;2023-02-02T00:40:06;9.50;;;2.85;;
58446;SDS011;44240;51.840;7.258;2023-02-02T00:42:33;8.95;;;2.50;;
58446;SDS011;44240;51.840;7.258;2023-02-02T00:44:59;11.32;;;2.40;;
58446;SDS011;44240;51.840;7.258;2023-02-02T00:47:39;7.32;;;2.92;;
58446;SDS011;44240;51.840;7.258;2023-02-02T00:50:06;16.38;;;3.80;;
58446;SDS011;44240;51.840;7.258;2023-02-02T00:52:32;9.00;;;2.33;;
58446;SDS011;44240;51.840;7.258;2023-02-02T00:54:57;8.40;;;3.13;;
58446;SDS011;44240;51.840;7.258;2023-02-02T00:57:23;7.22;;;2.03;;
58446;SDS011;44240;51.840;7.258;2023-02-02T00:59:48;13.15;;;2.92;;
58446;SDS011;44240;51.840;7.258;2023-02-02T01:02:14;10.23;;;2.80;;
58446;SDS011;44240;51.840;7.258;2023-02-02T01:04:39;10.18;;;2.63;;
58446;SDS011;44240;51.840;7.258;2023-02-02T01:07:05;10.63;;;3.47;;
58446;SDS011;44240;51.840;7.258;2023-02-02T01:09:30;11.32;;;3.22;;
58446;SDS011;44240;51.840;7.258;2023-02-02T01:11:56;8.82;;;2.97;;
58446;SDS011;44240;51.840;7.258;2023-02-02T01:14:22;6.90;;;2.63;;
58446;SDS011;44240;51.840;7.258;2023-02-02T01:16:47;12.32;;;2.85;;
58446;SDS011;44240;51.840;7.258;2023-02-02T01:19:13;12.35;;;2.75;;
58446;SDS011;44240;51.840;7.258;2023-02-02T01:21:39;12.88;;;3.60;;
58446;SDS011;44240;51.840;7.258;2023-02-02T01:24:05;17.20;;;4.30;;
58446;SDS011;44240;51.840;7.258;2023-02-02T01:26:31;17.60;;;4.35;;
58446;SDS011;44240;51.840;7.258;2023-02-02T01:28:56;15.38;;;4.93;;
58446;SDS011;44240;51.840;7.258;2023-02-02T01:31:22;14.23;;;4.47;;
58446;SDS011;44240;51.840;7.258;2023-02-02T01:33:48;13.57;;;4.55;;
58446;SDS011;44240;51.840;7.258;2023-02-02T01:36:15;12.45;;;4.43;;
58446;SDS011;44240;51.840;7.258;2023-02-02T01:38:42;15.25;;;4.10;;
58446;SDS011;44240;51.840;7.258;2023-02-02T01:41:11;15.50;;;4.70;;
58446;SDS011;44240;51.840;7.258;2023-02-02T01:46:26;15.73;;;5.00;;
58446;SDS011;44240;51.840;7.258;2023-02-02T01:49:12;10.40;;;5.55;;
58446;SDS011;44240;51.840;7.258;2023-02-02T01:51:42;16.88;;;5.53;;
58446;SDS011;44240;51.840;7.258;2023-02-02T01:54:16;17.90;;;5.68;;
58446;SDS011;44240;51.840;7.258;2023-02-02T01:56:51;14.75;;;5.38;;
58446;SDS011;44240;51.840;7.258;2023-02-02T01:59:20;14.23;;;4.78;;
58446;SDS011;44240;51.840;7.258;2023-02-02T02:01:46;15.60;;;5.63;;
58446;SDS011;44240;51.840;7.258;2023-02-02T02:04:12;20.73;;;6.05;;
58446;SDS011;44240;51.840;7.258;2023-02-02T02:06:38;11.52;;;5.82;;
58446;SDS011;44240;51.840;7.258;2023-02-02T02:09:05;20.92;;;6.97;;
58446;SDS011;44240;51.840;7.258;2023-02-02T02:11:31;14.35;;;6.75;;
58446;SDS011;44240;51.840;7.258;2023-02-02T02:13:59;13.32;;;5.80;;
58446;SDS011;44240;51.840;7.258;2023-02-02T02:23:16;24.30;;;7.65;;
58446;SDS011;44240;51.840;7.258;2023-02-02T02:26:37;23.88;;;7.65;;
58446;SDS011;44240;51.840;7.258;2023-02-02T02:30:04;21.65;;;7.30;;
58446;SDS011;44240;51.840;7.258;2023-02-02T02:34:57;25.05;;;8.93;;
58446;SDS011;44240;51.840;7.258;2023-02-02T02:37:44;28.67;;;8.65;;
58446;SDS011;44240;51.840;7.258;2023-02-02T02:40:46;15.30;;;7.22;;
58446;SDS011;44240;51.840;7.258;2023-02-02T02:43:19;17.77;;;8.13;;
58446;SDS011;44240;51.840;7.258;2023-02-02T02:45:50;15.55;;;7.07;;
58446;SDS011;44240;51.840;7.258;2023-02-02T02:48:16;28.45;;;9.60;;
58446;SDS011;44240;51.840;7.258;2023-02-02T02:50:42;21.67;;;8.45;;
58446;SDS011;44240;51.840;7.258;2023-02-02T02:53:09;18.70;;;7.90;;
58446;SDS011;44240;51.840;7.258;2023-02-02T02:55:44;22.58;;;7.78;;
58446;SDS011;44240;51.840;7.258;2023-02-02T03:01:34;20.17;;;8.60;;
58446;SDS011;44240;51.840;7.258;2023-02-02T03:04:09;24.40;;;8.55;;
58446;SDS011;44240;51.840;7.258;2023-02-02T03:06:52;16.52;;;7.55;;
58446;SDS011;44240;51.840;7.258;2023-02-02T03:09:28;16.85;;;7.20;;
58446;SDS011;44240;51.840;7.258;2023-02-02T03:11:58;21.38;;;8.93;;
58446;SDS011;44240;51.840;7.258;2023-02-02T03:14:24;21.65;;;8.27;;
58446;SDS011;44240;51.840;7.258;2023-02-02T03:16:50;19.98;;;8.27;;
58446;SDS011;44240;51.840;7.258;2023-02-02T03:19:17;25.15;;;8.00;;
58446;SDS011;44240;51.840;7.258;2023-02-02T03:21:43;13.73;;;7.15;;
58446;SDS011;44240;51.840;7.258;2023-02-02T03:24:08;28.15;;;8.00;;
58446;SDS011;44240;51.840;7.258;2023-02-02T03:26:34;19.50;;;7.57;;
58446;SDS011;44240;51.840;7.258;2023-02-02T03:29:00;19.60;;;7.75;;
58446;SDS011;44240;51.840;7.258;2023-02-02T03:31:26;19.08;;;6.70;;
58446;SDS011;44240;51.840;7.258;2023-02-02T03:33:52;18.42;;;7.57;;
58446;SDS011;44240;51.840;7.258;2023-02-02T03:36:18;17.10;;;7.13;;
58446;SDS011;44240;51.840;7.258;2023-02-02T03:38:43;21.00;;;7.72;;
58446;SDS011;44240;51.840;7.258;2023-02-02T03:41:09;18.80;;;7.07;;
58446;SDS011;44240;51.840;7.258;2023-02-02T03:43:34;26.15;;;7.72;;
58446;SDS011;44240;51.840;7.258;2023-02-02T03:46:01;20.80;;;6.85;;
58446;SDS011;44240;51.840;7.258;2023-02-02T03:48:30;19.77;;;6.82;;
58446;SDS011;44240;51.840;7.258;2023-02-02T03:50:59;19.02;;;6.60;;
58446;SDS011;44240;51.840;7.258;2023-02-02T03:53:25;21.30;;;6.07;;
58446;SDS011;44240;51.840;7.258;2023-02-02T03:55:50;17.38;;;6.55;;
58446;SDS011;44240;51.840;7.258;2023-02-02T03:58:16;16.75;;;5.95;;
58446;SDS011;44240;51.840;7.258;2023-02-02T04:00:41;17.50;;;6.03;;
58446;SDS011;44240;51.840;7.258;2023-02-02T04:03:07;18.50;;;6.25;;
58446;SDS011;44240;51.840;7.258;2023-02-02T04:05:32;14.75;;;6.95;;
58446;SDS011;44240;51.840;7.258;2023-02-02T04:07:58;17.88;;;5.32;;
58446;SDS011;44240;51.840;7.258;2023-02-02T04:10:23;14.02;;;5.22;;
58446;SDS011;44240;51.840;7.258;2023-02-02T04:12:49;15.55;;;5.68;;
58446;SDS011;44240;51.840;7.258;2023-02-02T04:15:15;16.83;;;5.43;;
58446;SDS011;44240;51.840;7.258;2023-02-02T04:17:40;20.05;;;5.47;;
58446;SDS011;44240;51.840;7.258;2023-02-02T04:20:06;14.60;;;5.55;;
58446;SDS011;44240;51.840;7.258;2023-02-02T04:22:32;20.13;;;6.10;;
58446;SDS011;44240;51.840;7.258;2023-02-02T04:24:58;19.10;;;5.82;;
58446;SDS011;44240;51.840;7.258;2023-02-02T04:27:23;11.15;;;5.15;;
58446;SDS011;44240;51.840;7.258;2023-02-02T04:29:49;14.75;;;6.20;;
58446;SDS011;44240;51.840;7.258;2023-02-02T04:32:15;20.95;;;7.00;;
58446;SDS011;44240;51.840;7.258;2023-02-02T04:34:41;17.80;;;6.38;;
58446;SDS011;44240;51.840;7.258;2023-02-02T04:37:07;16.88;;;6.65;;
58446;SDS011;44240;51.840;7.258;2023-02-02T04:39:33;23.98;;;6.05;;
58446;SDS011;44240;51.840;7.258;2023-02-02T04:41:58;16.15;;;6.32;;
58446;SDS011;44240;51.840;7.258;2023-02-02T04:44:24;17.10;;;6.55;;
58446;SDS011;44240;51.840;7.258;2023-02-02T04:46:49;16.05;;;6.82;;
58446;SDS011;44240;51.840;7.258;2023-02-02T04:49:15;12.55;;;6.38;;
58446;SDS011;44240;51.840;7.258;2023-02-02T04:51:40;20.88;;;7.32;;
58446;SDS011;44240;51.840;7.258;2023-02-02T04:54:06;19.38;;;7.28;;
58446;SDS011;44240;51.840;7.258;2023-02-02T04:56:32;13.88;;;6.22;;
58446;SDS011;44240;51.840;7.258;2023-02-02T04:58:58;14.45;;;7.05;;
58446;SDS011;44240;51.840;7.258;2023-02-02T05:01:24;15.60;;;7.82;;
58446;SDS011;44240;51.840;7.258;2023-02-02T05:03:50;18.13;;;8.15;;
58446;SDS011;44240;51.840;7.258;2023-02-02T05:06:15;19.70;;;7.55;;
58446;SDS011;44240;51.840;7.258;2023-02-02T05:08:43;14.35;;;7.70;;
58446;SDS011;44240;51.840;7.258;2023-02-02T05:11:10;18.40;;;9.20;;
58446;SDS011;44240;51.840;7.258;2023-02-02T05:13:37;26.27;;;9.52;;
58446;SDS011;44240;51.840;7.258;2023-02-02T05:16:03;28.15;;;11.98;;
58446;SDS011;44240;51.840;7.258;2023-02-02T05:18:29;23.70;;;12.48;;
58446;SDS011;44240;51.840;7.258;2023-02-02T05:20:57;27.73;;;12.23;;
58446;SDS011;44240;51.840;7.258;2023-02-02T05:23:27;27.73;;;12.77;;
58446;SDS011;44240;51.840;7.258;2023-02-02T05:25:53;24.85;;;12.20;;
58446;SDS011;44240;51.840;7.258;2023-02-02T05:28:19;25.23;;;12.27;;
58446;SDS011;44240;51.840;7.258;2023-02-02T05:30:46;23.15;;;9.70;;
58446;SDS011;44240;51.840;7.258;2023-02-02T05:33:12;22.60;;;11.05;;
58446;SDS011;44240;51.840;7.258;2023-02-02T05:35:37;25.20;;;11.55;;
58446;SDS011;44240;51.840;7.258;2023-02-02T05:38:03;29.55;;;11.93;;
58446;SDS011;44240;51.840;7.258;2023-02-02T05:40:28;28.95;;;13.55;;
58446;SDS011;44240;51.840;7.258;2023-02-02T05:42:54;32.97;;;13.38;;
58446;SDS011;44240;51.840;7.258;2023-02-02T05:45:20;31.90;;;12.95;;
58446;SDS011;44240;51.840;7.258;2023-02-02T05:47:46;28.75;;;12.15;;
58446;SDS011;44240;51.840;7.258;2023-02-02T05:50:11;23.38;;;10.93;;
58446;SDS011;44240;51.840;7.258;2023-02-02T05:52:37;33.38;;;12.73;;
58446;SDS011;44240;51.840;7.258;2023-02-02T05:55:04;30.20;;;12.80;;
58446;SDS011;44240;51.840;7.258;2023-02-02T05:57:30;33.80;;;12.13;;
58446;SDS011;44240;51.840;7.258;2023-02-02T05:59:55;32.17;;;12.00;;
58446;SDS011;44240;51.840;7.258;2023-02-02T06:02:21;28.05;;;11.65;;
58446;SDS011;44240;51.840;7.258;2023-02-02T06:04:46;30.38;;;10.27;;
58446;SDS011;44240;51.840;7.258;2023-02-02T06:07:12;23.92;;;11.68;;
58446;SDS011;44240;51.840;7.258;2023-02-02T06:09:37;27.40;;;10.57;;
58446;SDS011;44240;51.840;7.258;2023-02-02T06:12:03;28.60;;;10.80;;
58446;SDS011;44240;51.840;7.258;2023-02-02T06:14:29;23.60;;;11.75;;
58446;SDS011;44240;51.840;7.258;2023-02-02T06:16:55;24.95;;;10.15;;
58446;SDS011;44240;51.840;7.258;2023-02-02T06:19:20;27.55;;;11.82;;
58446;SDS011;44240;51.840;7.258;2023-02-02T06:21:46;29.13;;;12.35;;
58446;SDS011;44240;51.840;7.258;2023-02-02T06:24:11;32.83;;;11.20;;
58446;SDS011;44240;51.840;7.258;2023-02-02T06:26:37;34.28;;;11.45;;
58446;SDS011;44240;51.840;7.258;2023-02-02T06:29:02;26.70;;;11.38;;
58446;SDS011;44240;51.840;7.258;2023-02-02T06:31:28;32.75;;;11.70;;
58446;SDS011;44240;51.840;7.258;2023-02-02T06:33:54;22.55;;;10.45;;
58446;SDS011;44240;51.840;7.258;2023-02-02T06:36:21;25.45;;;10.07;;
58446;SDS011;44240;51.840;7.258;2023-02-02T06:38:48;27.02;;;10.57;;
58446;SDS011;44240;51.840;7.258;2023-02-02T06:41:14;28.02;;;10.88;;
58446;SDS011;44240;51.840;7.258;2023-02-02T06:43:40;27.70;;;10.93;;
58446;SDS011;44240;51.840;7.258;2023-02-02T06:46:06;31.98;;;12.00;;
58446;SDS011;44240;51.840;7.258;2023-02-02T06:48:31;31.17;;;11.82;;
58446;SDS011;44240;51.840;7.258;2023-02-02T06:50:57;30.08;;;11.93;;
58446;SDS011;44240;51.840;7.258;2023-02-02T06:53:23;27.08;;;10.63;;
58446;SDS011;44240;51.840;7.258;2023-02-02T06:55:57;27.90;;;11.88;;
58446;SDS011;44240;51.840;7.258;2023-02-02T06:58:25;24.30;;;10.77;;
58446;SDS011;44240;51.840;7.258;2023-02-02T07:00:51;19.55;;;10.23;;
58446;SDS011;44240;51.840;7.258;2023-02-02T07:03:17;26.33;;;10.02;;
58446;SDS011;44240;51.840;7.258;2023-02-02T07:05:45;31.52;;;11.75;;
58446;SDS011;44240;51.840;7.258;2023-02-02T07:08:11;29.13;;;10.88;;
58446;SDS011;44240;51.840;7.258;2023-02-02T07:10:37;22.35;;;10.13;;
58446;SDS011;44240;51.840;7.258;2023-02-02T07:13:03;32.00;;;12.43;;
58446;SDS011;44240;51.840;7.258;2023-02-02T07:15:30;22.40;;;11.55;;
58446;SDS011;44240;51.840;7.258;2023-02-02T07:17:56;26.08;;;11.75;;
58446;SDS011;44240;51.840;7.258;2023-02-02T07:20:22;29.75;;;12.10;;
58446;SDS011;44240;51.840;7.258;2023-02-02T07:22:47;25.30;;;10.38;;
58446;SDS011;44240;51.840;7.258;2023-02-02T07:25:13;30.10;;;11.63;;
58446;SDS011;44240;51.840;7.258;2023-02-02T07:27:38;29.10;;;11.73;;
58446;SDS011;44240;51.840;7.258;2023-02-02T07:30:04;32.28;;;12.30;;
58446;SDS011;44240;51.840;7.258;2023-02-02T07:32:30;23.70;;;12.23;;
58446;SDS011;44240;51.840;7.258;2023-02-02T07:34:56;26.27;;;11.80;;
58446;SDS011;44240;51.840;7.258;2023-02-02T07:37:21;24.75;;;12.05;;
58446;SDS011;44240;51.840;7.258;2023-02-02T07:39:47;34.92;;;12.77;;
58446;SDS011;44240;51.840;7.258;2023-02-02T07:42:12;31.45;;;12.05;;
58446;SDS011;44240;51.840;7.258;2023-02-02T07:44:38;25.50;;;12.45;;
58446;SDS011;44240;51.840;7.258;2023-02-02T07:47:03;31.67;;;14.02;;
58446;SDS011;44240;51.840;7.258;2023-02-02T07:49:29;23.35;;;11.77;;
58446;SDS011;44240;51.840;7.258;2023-02-02T07:51:55;28.77;;;12.55;;
58446;SDS011;44240;51.840;7.258;2023-02-02T07:54:20;30.40;;;12.30;;
58446;SDS011;44240;51.840;7.258;2023-02-02T07:56:46;31.00;;;11.73;;
58446;SDS011;44240;51.840;7.258;2023-02-02T07:59:11;29.25;;;11.65;;
58446;SDS011;44240;51.840;7.258;2023-02-02T08:01:37;24.50;;;9.23;;
58446;SDS011;44240;51.840;7.258;2023-02-02T08:04:02;28.08;;;11.00;;
58446;SDS011;44240;51.840;7.258;2023-02-02T08:06:30;27.60;;;9.68;;
58446;SDS011;44240;51.840;7.258;2023-02-02T08:09:00;29.15;;;11.90;;
58446;SDS011;44240;51.840;7.258;2023-02-02T08:11:28;24.27;;;10.13;;
58446;SDS011;44240;51.840;7.258;2023-02-02T08:13:54;19.58;;;10.07;;
58446;SDS011;44240;51.840;7.258;2023-02-02T08:16:25;24.92;;;11.65;;
58446;SDS011;44240;51.840;7.258;2023-02-02T08:18:51;25.63;;;9.90;;
58446;SDS011;44240;51.840;7.258;2023-02-02T08:21:17;23.77;;;11.00;;
58446;SDS011;44240;51.840;7.258;2023-02-02T08:23:43;23.42;;;11.02;;
58446;SDS011;44240;51.840;7.258;2023-02-02T08:26:13;28.33;;;12.05;;
58446;SDS011;44240;51.840;7.258;2023-02-02T08:28:51;19.65;;;9.43;;
58446;SDS011;44240;51.840;7.258;2023-02-02T08:31:20;20.02;;;9.10;;
58446;SDS011;44240;51.840;7.258;2023-02-02T08:33:47;21.90;;;10.70;;
58446;SDS011;44240;51.840;7.258;2023-02-02T08:36:13;15.90;;;8.18;;
58446;SDS011;44240;51.840;7.258;2023-02-02T08:38:41;27.38;;;10.77;;
58446;SDS011;44240;51.840;7.258;2023-02-02T08:41:07;23.50;;;10.55;;
58446;SDS011;44240;51.840;7.258;2023-02-02T08:43:34;18.73;;;9.35;;
58446;SDS011;44240;51.840;7.258;2023-02-02T08:46:00;19.98;;;9.43;;
58446;SDS011;44240;51.840;7.258;2023-02-02T08:48:26;18.58;;;9.38;;
58446;SDS011;44240;51.840;7.258;2023-02-02T08:50:55;23.05;;;8.98;;
58446;SDS011;44240;51.840;7.258;2023-02-02T08:53:22;14.52;;;8.82;;
58446;SDS011;44240;51.840;7.258;2023-02-02T08:55:56;18.98;;;8.55;;
58446;SDS011;44240;51.840;7.258;2023-02-02T08:58:26;23.10;;;8.32;;
58446;SDS011;44240;51.840;7.258;2023-02-02T09:00:52;20.08;;;8.35;;
58446;SDS011;44240;51.840;7.258;2023-02-02T09:03:17;18.17;;;8.77;;
58446;SDS011;44240;51.840;7.258;2023-02-02T09:05:43;15.93;;;7.07;;
58446;SDS011;44240;51.840;7.258;2023-02-02T09:08:09;14.65;;;7.75;;
58446;SDS011;44240;51.840;7.258;2023-02-02T09:10:35;16.85;;;8.70;;
58446;SDS011;44240;51.840;7.258;2023-02-02T09:13:01;22.42;;;9.00;;
58446;SDS011;44240;51.840;7.258;2023-02-02T09:15:27;18.38;;;9.05;;
58446;SDS011;44240;51.840;7.258;2023-02-02T09:17:53;19.27;;;7.72;;
58446;SDS011;44240;51.840;7.258;2023-02-02T09:20:18;15.18;;;9.38;;
58446;SDS011;44240;51.840;7.258;2023-02-02T09:22:44;17.45;;;8.77;;
58446;SDS011;44240;51.840;7.258;2023-02-02T09:25:09;13.98;;;8.68;;
58446;SDS011;44240;51.840;7.258;2023-02-02T09:27:37;16.95;;;9.13;;
58446;SDS011;44240;51.840;7.258;2023-02-02T09:30:07;17.20;;;9.80;;
58446;SDS011;44240;51.840;7.258;2023-02-02T09:32:33;17.20;;;9.77;;
58446;SDS011;44240;51.840;7.258;2023-02-02T09:34:58;18.65;;;8.93;;
58446;SDS011;44240;51.840;7.258;2023-02-02T09:37:24;17.10;;;8.52;;
58446;SDS011;44240;51.840;7.258;2023-02-02T09:39:50;15.63;;;8.68;;
58446;SDS011;44240;51.840;7.258;2023-02-02T09:42:20;15.68;;;8.38;;
58446;SDS011;44240;51.840;7.258;2023-02-02T09:47:38;12.70;;;7.93;;
58446;SDS011;44240;51.840;7.258;2023-02-02T09:57:59;16.15;;;6.65;;
58446;SDS011;44240;51.840;7.258;2023-02-02T10:00:51;14.23;;;7.30;;
58446;SDS011;44240;51.840;7.258;2023-02-02T10:03:20;15.10;;;7.07;;
58446;SDS011;44240;51.840;7.258;2023-02-02T10:05:56;12.82;;;6.38;;
58446;SDS011;44240;51.840;7.258;2023-02-02T10:08:47;11.38;;;6.70;;
58446;SDS011;44240;51.840;7.258;2023-02-02T10:11:29;13.27;;;7.28;;
58446;SDS011;44240;51.840;7.258;2023-02-02T10:17:11;14.15;;;6.70;;
58446;SDS011;44240;51.840;7.258;2023-02-02T10:19:42;15.73;;;7.22;;
58446;SDS011;44240;51.840;7.258;2023-02-02T10:24:39;12.02;;;6.25;;
58446;SDS011;44240;51.840;7.258;2023-02-02T10:27:11;14.45;;;7.32;;
58446;SDS011;44240;51.840;7.258;2023-02-02T10:32:24;13.63;;;6.85;;
58446;SDS011;44240;51.840;7.258;2023-02-02T10:40:20;13.60;;;7.68;;
58446;SDS011;44240;51.840;7.258;2023-02-02T10:46:22;16.35;;;8.43;;
58446;SDS011;44240;51.840;7.258;2023-02-02T10:49:40;20.70;;;9.13;;
58446;SDS011;44240;51.840;7.258;2023-02-02T10:57:23;20.48;;;10.63;;
58446;SDS011;44240;51.840;7.258;2023-02-02T11:02:48;19.35;;;9.80;;
58446;SDS011;44240;51.840;7.258;2023-02-02T11:05:22;22.10;;;9.73;;
58446;SDS011;44240;51.840;7.258;2023-02-02T11:08:18;23.08;;;9.70;;
58446;SDS011;44240;51.840;7.258;2023-02-02T11:10:48;19.88;;;9.68;;
58446;SDS011;44240;51.840;7.258;2023-02-02T11:13:25;17.95;;;9.25;;
58446;SDS011;44240;51.840;7.258;2023-02-02T11:18:38;26.10;;;9.93;;
58446;SDS011;44240;51.840;7.258;2023-02-02T11:26:26;20.50;;;9.57;;
58446;SDS011;44240;51.840;7.258;2023-02-02T11:29:12;18.15;;;10.27;;
58446;SDS011;44240;51.840;7.258;2023-02-02T11:31:43;23.08;;;10.73;;
58446;SDS011;44240;51.840;7.258;2023-02-02T11:36:56;21.88;;;9.50;;
58446;SDS011;44240;51.840;7.258;2023-02-02T11:39:22;23.20;;;10.70;;
58446;SDS011;44240;51.840;7.258;2023-02-02T11:41:47;24.63;;;10.90;;
58446;SDS011;44240;51.840;7.258;2023-02-02T11:44:16;20.85;;;9.73;;
58446;SDS011;44240;51.840;7.258;2023-02-02T11:46:51;23.73;;;9.30;;
58446;SDS011;44240;51.840;7.258;2023-02-02T11:49:18;26.92;;;9.73;;
58446;SDS011;44240;51.840;7.258;2023-02-02T11:51:54;24.90;;;9.88;;
58446;SDS011;44240;51.840;7.258;2023-02-02T11:54:32;28.45;;;10.48;;
58446;SDS011;44240;51.840;7.258;2023-02-02T11:57:00;24.75;;;10.13;;
58446;SDS011;44240;51.840;7.258;2023-02-02T11:59:39;26.77;;;12.48;;
58446;SDS011;44240;51.840;7.258;2023-02-02T12:02:28;23.80;;;11.20;;
58446;SDS011;44240;51.840;7.258;2023-02-02T12:04:55;24.23;;;11.30;;
58446;SDS011;44240;51.840;7.258;2023-02-02T12:07:40;15.38;;;8.55;;
58446;SDS011;44240;51.840;7.258;2023-02-02T12:13:04;25.27;;;11.70;;
58446;SDS011;44240;51.840;7.258;2023-02-02T12:15:50;22.42;;;11.93;;
58446;SDS011;44240;51.840;7.258;2023-02-02T12:18:33;22.13;;;11.63;;
58446;SDS011;44240;51.840;7.258;2023-02-02T12:21:17;27.42;;;12.43;;
58446;SDS011;44240;51.840;7.258;2023-02-02T12:24:08;25.20;;;12.15;;
58446;SDS011;44240;51.840;7.258;2023-02-02T12:35:10;21.90;;;11.02;;
58446;SDS011;44240;51.840;7.258;2023-02-02T12:41:25;28.25;;;12.68;;
58446;SDS011;44240;51.840;7.258;2023-02-02T12:43:37;22.50;;;10.57;;
58446;SDS011;44240;51.840;7.258;2023-02-02T12:46:08;28.00;;;12.32;;
58446;SDS011;44240;51.840;7.258;2023-02-02T12:51:40;23.52;;;11.23;;
58446;SDS011;44240;51.840;7.258;2023-02-02T13:00:06;23.33;;;11.50;;
58446;SDS011;44240;51.840;7.258;2023-02-02T13:03:14;28.05;;;11.85;;
58446;SDS011;44240;51.840;7.258;2023-02-02T13:06:14;26.42;;;11.20;;
58446;SDS011;44240;51.840;7.258;2023-02-02T13:08:54;33.08;;;11.30;;
58446;SDS011;44240;51.840;7.258;2023-02-02T13:11:41;19.48;;;10.38;;
58446;SDS011;44240;51.840;7.258;2023-02-02T13:14:19;29.05;;;12.52;;
58446;SDS011;44240;51.840;7.258;2023-02-02T13:17:26;22.08;;;11.60;;
58446;SDS011;44240;51.840;7.258;2023-02-02T13:20:01;25.95;;;11.50;;
58446;SDS011;44240;51.840;7.258;2023-02-02T13:22:52;25.15;;;11.35;;
58446;SDS011;44240;51.840;7.258;2023-02-02T13:25:28;27.02;;;11.02;;
58446;SDS011;44240;51.840;7.258;2023-02-02T13:27:58;22.05;;;10.48;;
58446;SDS011;44240;51.840;7.258;2023-02-02T13:30:37;23.05;;;10.40;;
58446;SDS011;44240;51.840;7.258;2023-02-02T13:33:11;18.83;;;10.00;;
58446;SDS011;44240;51.840;7.258;2023-02-02T13:35:54;23.52;;;10.93;;
58446;SDS011;44240;51.840;7.258;2023-02-02T13:38:27;19.45;;;9.45;;
58446;SDS011;44240;51.840;7.258;2023-02-02T13:40:55;26.98;;;11.32;;
58446;SDS011;44240;51.840;7.258;2023-02-02T13:46:17;26.80;;;10.38;;
58446;SDS011;44240;51.840;7.258;2023-02-02T13:49:05;24.67;;;9.57;;
58446;SDS011;44240;51.840;7.258;2023-02-02T14:02:46;18.13;;;10.68;;
58446;SDS011;44240;51.840;7.258;2023-02-02T14:05:26;25.77;;;9.65;;
58446;SDS011;44240;51.840;7.258;2023-02-02T14:07:55;18.23;;;9.18;;
58446;SDS011;44240;51.840;7.258;2023-02-02T14:10:32;20.73;;;9.38;;
58446;SDS011;44240;51.840;7.258;2023-02-02T14:15:56;24.23;;;11.52;;
58446;SDS011;44240;51.840;7.258;2023-02-02T14:23:57;32.72;;;12.23;;
58446;SDS011;44240;51.840;7.258;2023-02-02T14:26:50;22.05;;;11.07;;
58446;SDS011;44240;51.840;7.258;2023-02-02T14:31:57;22.52;;;11.07;;
58446;SDS011;44240;51.840;7.258;2023-02-02T14:36:52;23.08;;;12.15;;
58446;SDS011;44240;51.840;7.258;2023-02-02T14:45:43;22.90;;;10.82;;
58446;SDS011;44240;51.840;7.258;2023-02-02T14:48:14;26.95;;;11.73;;
58446;SDS011;44240;51.840;7.258;2023-02-02T14:50:46;20.30;;;11.63;;
58446;SDS011;44240;51.840;7.258;2023-02-02T14:55:52;21.52;;;11.43;;
58446;SDS011;44240;51.840;7.258;2023-02-02T15:01:06;18.60;;;10.98;;
58446;SDS011;44240;51.840;7.258;2023-02-02T15:14:39;18.95;;;12.35;;
58446;SDS011;44240;51.840;7.258;2023-02-02T15:22:59;32.53;;;15.05;;
58446;SDS011;44240;51.840;7.258;2023-02-02T15:26:29;24.48;;;14.02;;
58446;SDS011;44240;51.840;7.258;2023-02-02T15:28:56;30.50;;;14.18;;
58446;SDS011;44240;51.840;7.258;2023-02-02T15:31:28;26.50;;;15.20;;
58446;SDS011;44240;51.840;7.258;2023-02-02T15:34:31;27.20;;;14.18;;
58446;SDS011;44240;51.840;7.258;2023-02-02T15:37:01;26.80;;;15.20;;
58446;SDS011;44240;51.840;7.258;2023-02-02T15:39:30;36.65;;;15.77;;
58446;SDS011;44240;51.840;7.258;2023-02-02T15:42:01;27.25;;;16.55;;
58446;SDS011;44240;51.840;7.258;2023-02-02T15:44:54;26.05;;;15.05;;
58446;SDS011;44240;51.840;7.258;2023-02-02T15:47:22;22.45;;;11.57;;
58446;SDS011;44240;51.840;7.258;2023-02-02T15:49:54;21.55;;;14.32;;
58446;SDS011;44240;51.840;7.258;2023-02-02T15:52:25;24.75;;;15.02;;
58446;SDS011;44240;51.840;7.258;2023-02-02T15:54:53;32.92;;;16.40;;
58446;SDS011;44240;51.840;7.258;2023-02-02T15:57:22;28.33;;;14.93;;
58446;SDS011;44240;51.840;7.258;2023-02-02T15:59:59;25.35;;;15.48;;
58446;SDS011;44240;51.840;7.258;2023-02-02T16:02:40;26.70;;;15.85;;
58446;SDS011;44240;51.840;7.258;2023-02-02T16:05:22;27.02;;;15.00;;
58446;SDS011;44240;51.840;7.258;2023-02-02T16:07:53;29.00;;;14.90;;
58446;SDS011;44240;51.840;7.258;2023-02-02T16:10:20;28.17;;;16.25;;
58446;SDS011;44240;51.840;7.258;2023-02-02T16:12:46;30.20;;;17.30;;
58446;SDS011;44240;51.840;7.258;2023-02-02T16:15:18;33.67;;;15.90;;
58446;SDS011;44240;51.840;7.258;2023-02-02T16:17:50;27.40;;;15.95;;
58446;SDS011;44240;51.840;7.258;2023-02-02T16:20:30;25.08;;;12.82;;
58446;SDS011;44240;51.840;7.258;2023-02-02T16:22:57;20.55;;;14.52;;
58446;SDS011;44240;51.840;7.258;2023-02-02T16:25:26;29.45;;;17.02;;
58446;SDS011;44240;51.840;7.258;2023-02-02T16:27:55;23.33;;;15.18;;
58446;SDS011;44240;51.840;7.258;2023-02-02T16:30:27;25.50;;;14.52;;
58446;SDS011;44240;51.840;7.258;2023-02-02T16:33:19;24.30;;;15.40;;
58446;SDS011;44240;51.840;7.258;2023-02-02T16:35:57;23.17;;;16.60;;
58446;SDS011;44240;51.840;7.258;2023-02-02T16:38:33;30.40;;;16.10;;
58446;SDS011;44240;51.840;7.258;2023-02-02T16:41:01;30.17;;;17.67;;
58446;SDS011;44240;51.840;7.258;2023-02-02T16:43:27;28.90;;;16.05;;
58446;SDS011;44240;51.840;7.258;2023-02-02T16:45:54;23.70;;;15.45;;
58446;SDS011;44240;51.840;7.258;2023-02-02T16:48:26;24.75;;;15.98;;
58446;SDS011;44240;51.840;7.258;2023-02-02T16:53:39;24.60;;;14.70;;
58446;SDS011;44240;51.840;7.258;2023-02-02T16:56:28;25.75;;;15.85;;
58446;SDS011;44240;51.840;7.258;2023-02-02T16:59:00;24.33;;;14.95;;
58446;SDS011;44240;51.840;7.258;2023-02-02T17:04:00;24.98;;;14.45;;
58446;SDS011;44240;51.840;7.258;2023-02-02T17:06:28;22.55;;;14.35;;
58446;SDS011;44240;51.840;7.258;2023-02-02T17:09:12;22.45;;;14.63;;
58446;SDS011;44240;51.840;7.258;2023-02-02T17:11:54;21.55;;;13.98;;
58446;SDS011;44240;51.840;7.258;2023-02-02T17:14:26;20.25;;;14.13;;